sensor_id;sensor_type;location;lat;lon;timestamp;P1;durP1;ratioP1;P2;durP2;ratioP2
30617;SDS011;17384;51.214;9.202;2023-04-08T00:01:04;25.60;;;12.55;;
30617;SDS011;17384;51.214;9.202;2023-04-08T00:03:29;21.52;;;11.75;;
30617;SDS011;17384;51.214;9.202;2023-04-08T00:05:56;22.17;;;12.93;;
30617;SDS011;17384;51.214;9.202;2023-04-08T00:08:21;18.05;;;12.95;;
30617;SDS011;17384;51.214;9.202;2023-04-08T00:10:47;21.45;;;12.30;;
30617;SDS011;17384;51.214;9.202;2023-04-08T00:13:12;20.83;;;12.38;;
30617;SDS011;17384;51.214;9.202;2023-04-08T00:15:39;20.73;;;11.82;;
30617;SDS011;17384;51.214;9.202;2023-04-08T00:18:05;20.17;;;12.55;;
30617;SDS011;17384;51.214;9.202;2023-04-08T00:20:31;21.80;;;12.60;;
30617;SDS011;17384;51.214;9.202;2023-04-08T00:22:57;22.08;;;13.48;;
30617;SDS011;17384;51.214;9.202;2023-04-08T00:25:22;24.08;;;14.10;;
30617;SDS011;17384;51.214;9.202;2023-04-08T00:27:48;25.63;;;13.48;;
30617;SDS011;17384;51.214;9.202;2023-04-08T00:30:13;21.70;;;14.35;;
30617;SDS011;17384;51.214;9.202;2023-04-08T00:32:39;23.45;;;14.05;;
30617;SDS011;17384;51.214;9.202;2023-04-08T00:35:05;30.40;;;14.90;;
30617;SDS011;17384;51.214;9.202;2023-04-08T00:37:31;26.92;;;15.10;;
30617;SDS011;17384;51.214;9.202;2023-04-08T00:39:57;26.90;;;14.63;;
30617;SDS011;17384;51.214;9.202;2023-04-08T00:42:22;26.05;;;14.45;;
30617;SDS011;17384;51.214;9.202;2023-04-08T00:44:48;23.10;;;13.55;;
30617;SDS011;17384;51.214;9.202;2023-04-08T00:47:13;24.35;;;14.32;;
30617;SDS011;17384;51.214;9.202;2023-04-08T00:49:40;23.95;;;13.77;;
30617;SDS011;17384;51.214;9.202;2023-04-08T00:52:06;21.23;;;13.57;;
30617;SDS011;17384;51.214;9.202;2023-04-08T00:54:31;23.83;;;14.68;;
30617;SDS011;17384;51.214;9.202;2023-04-08T00:56:57;25.15;;;13.73;;
30617;SDS011;17384;51.214;9.202;2023-04-08T00:59:26;26.75;;;13.30;;
30617;SDS011;17384;51.214;9.202;2023-04-08T01:02:09;26.35;;;14.68;;
30617;SDS011;17384;51.214;9.202;2023-04-08T01:09:56;30.23;;;17.38;;
30617;SDS011;17384;51.214;9.202;2023-04-08T01:12:27;25.38;;;14.02;;
30617;SDS011;17384;51.214;9.202;2023-04-08T01:15:13;26.05;;;14.45;;
30617;SDS011;17384;51.214;9.202;2023-04-08T01:17:39;26.15;;;14.05;;
30617;SDS011;17384;51.214;9.202;2023-04-08T01:20:07;33.70;;;15.07;;
30617;SDS011;17384;51.214;9.202;2023-04-08T01:22:38;22.70;;;13.43;;
30617;SDS011;17384;51.214;9.202;2023-04-08T01:25:18;27.17;;;14.32;;
30617;SDS011;17384;51.214;9.202;2023-04-08T01:27:46;28.92;;;14.43;;
30617;SDS011;17384;51.214;9.202;2023-04-08T01:30:13;35.10;;;17.48;;
30617;SDS011;17384;51.214;9.202;2023-04-08T01:32:42;30.50;;;16.02;;
30617;SDS011;17384;51.214;9.202;2023-04-08T01:35:09;31.65;;;17.42;;
30617;SDS011;17384;51.214;9.202;2023-04-08T01:37:35;29.27;;;15.68;;
30617;SDS011;17384;51.214;9.202;2023-04-08T01:40:01;27.35;;;15.15;;
30617;SDS011;17384;51.214;9.202;2023-04-08T01:42:28;26.02;;;15.10;;
30617;SDS011;17384;51.214;9.202;2023-04-08T01:44:56;37.53;;;17.77;;
30617;SDS011;17384;51.214;9.202;2023-04-08T01:47:23;34.00;;;18.00;;
30617;SDS011;17384;51.214;9.202;2023-04-08T01:49:50;30.55;;;17.17;;
30617;SDS011;17384;51.214;9.202;2023-04-08T01:52:17;28.88;;;16.85;;
30617;SDS011;17384;51.214;9.202;2023-04-08T01:54:45;30.95;;;16.65;;
30617;SDS011;17384;51.214;9.202;2023-04-08T01:57:13;29.35;;;15.88;;
30617;SDS011;17384;51.214;9.202;2023-04-08T01:59:43;39.38;;;17.90;;
30617;SDS011;17384;51.214;9.202;2023-04-08T02:02:15;36.05;;;17.70;;
30617;SDS011;17384;51.214;9.202;2023-04-08T02:04:44;31.70;;;17.58;;
30617;SDS011;17384;51.214;9.202;2023-04-08T02:07:10;35.13;;;17.33;;
30617;SDS011;17384;51.214;9.202;2023-04-08T02:09:36;27.67;;;16.10;;
30617;SDS011;17384;51.214;9.202;2023-04-08T02:12:02;30.33;;;16.95;;
30617;SDS011;17384;51.214;9.202;2023-04-08T02:14:27;37.53;;;17.13;;
30617;SDS011;17384;51.214;9.202;2023-04-08T02:16:55;32.83;;;17.42;;
30617;SDS011;17384;51.214;9.202;2023-04-08T02:19:30;25.80;;;15.55;;
30617;SDS011;17384;51.214;9.202;2023-04-08T02:22:04;27.27;;;16.25;;
30617;SDS011;17384;51.214;9.202;2023-04-08T02:24:35;29.48;;;16.80;;
30617;SDS011;17384;51.214;9.202;2023-04-08T02:27:03;32.50;;;18.40;;
30617;SDS011;17384;51.214;9.202;2023-04-08T02:29:30;34.45;;;17.35;;
30617;SDS011;17384;51.214;9.202;2023-04-08T02:31:57;35.70;;;17.88;;
30617;SDS011;17384;51.214;9.202;2023-04-08T02:34:25;29.33;;;17.17;;
30617;SDS011;17384;51.214;9.202;2023-04-08T02:36:51;33.30;;;17.52;;
30617;SDS011;17384;51.214;9.202;2023-04-08T02:39:17;30.45;;;16.60;;
30617;SDS011;17384;51.214;9.202;2023-04-08T02:41:42;33.95;;;17.80;;
30617;SDS011;17384;51.214;9.202;2023-04-08T02:44:08;27.70;;;16.83;;
30617;SDS011;17384;51.214;9.202;2023-04-08T02:46:34;32.47;;;18.38;;
30617;SDS011;17384;51.214;9.202;2023-04-08T02:49:00;33.28;;;17.67;;
30617;SDS011;17384;51.214;9.202;2023-04-08T02:51:25;29.40;;;17.58;;
30617;SDS011;17384;51.214;9.202;2023-04-08T02:53:52;32.22;;;18.05;;
30617;SDS011;17384;51.214;9.202;2023-04-08T02:56:17;36.47;;;19.05;;
30617;SDS011;17384;51.214;9.202;2023-04-08T02:58:43;31.67;;;17.40;;
30617;SDS011;17384;51.214;9.202;2023-04-08T03:01:08;31.95;;;19.23;;
30617;SDS011;17384;51.214;9.202;2023-04-08T03:03:34;32.72;;;17.60;;
30617;SDS011;17384;51.214;9.202;2023-04-08T03:05:59;35.60;;;19.75;;
30617;SDS011;17384;51.214;9.202;2023-04-08T03:08:25;34.10;;;18.40;;
30617;SDS011;17384;51.214;9.202;2023-04-08T03:10:50;38.85;;;21.15;;
30617;SDS011;17384;51.214;9.202;2023-04-08T03:13:16;40.47;;;20.58;;
30617;SDS011;17384;51.214;9.202;2023-04-08T03:15:41;33.55;;;19.58;;
30617;SDS011;17384;51.214;9.202;2023-04-08T03:18:07;35.40;;;21.23;;
30617;SDS011;17384;51.214;9.202;2023-04-08T03:20:33;36.83;;;22.13;;
30617;SDS011;17384;51.214;9.202;2023-04-08T03:22:58;32.17;;;18.60;;
30617;SDS011;17384;51.214;9.202;2023-04-08T03:25:24;33.13;;;19.17;;
30617;SDS011;17384;51.214;9.202;2023-04-08T03:27:50;35.67;;;19.92;;
30617;SDS011;17384;51.214;9.202;2023-04-08T03:30:15;30.83;;;18.17;;
30617;SDS011;17384;51.214;9.202;2023-04-08T03:32:41;29.33;;;16.40;;
30617;SDS011;17384;51.214;9.202;2023-04-08T03:35:07;31.52;;;17.10;;
30617;SDS011;17384;51.214;9.202;2023-04-08T03:37:32;26.52;;;16.30;;
30617;SDS011;17384;51.214;9.202;2023-04-08T03:39:58;28.17;;;17.63;;
30617;SDS011;17384;51.214;9.202;2023-04-08T03:42:24;30.05;;;16.73;;
30617;SDS011;17384;51.214;9.202;2023-04-08T03:44:49;29.55;;;17.45;;
30617;SDS011;17384;51.214;9.202;2023-04-08T03:47:15;24.75;;;15.90;;
30617;SDS011;17384;51.214;9.202;2023-04-08T03:49:40;24.75;;;15.48;;
30617;SDS011;17384;51.214;9.202;2023-04-08T03:52:05;28.75;;;16.13;;
30617;SDS011;17384;51.214;9.202;2023-04-08T03:54:31;23.15;;;15.02;;
30617;SDS011;17384;51.214;9.202;2023-04-08T03:56:57;30.55;;;16.25;;
30617;SDS011;17384;51.214;9.202;2023-04-08T03:59:22;27.10;;;17.15;;
30617;SDS011;17384;51.214;9.202;2023-04-08T04:01:48;27.98;;;15.35;;
30617;SDS011;17384;51.214;9.202;2023-04-08T04:04:15;28.48;;;15.52;;
30617;SDS011;17384;51.214;9.202;2023-04-08T04:06:40;24.90;;;14.95;;
30617;SDS011;17384;51.214;9.202;2023-04-08T04:09:06;24.88;;;14.80;;
30617;SDS011;17384;51.214;9.202;2023-04-08T04:11:33;25.88;;;14.57;;
30617;SDS011;17384;51.214;9.202;2023-04-08T04:13:59;21.63;;;14.93;;
30617;SDS011;17384;51.214;9.202;2023-04-08T04:16:25;29.50;;;17.88;;
30617;SDS011;17384;51.214;9.202;2023-04-08T04:18:51;30.00;;;17.02;;
30617;SDS011;17384;51.214;9.202;2023-04-08T04:21:17;28.50;;;15.82;;
30617;SDS011;17384;51.214;9.202;2023-04-08T04:23:43;32.10;;;19.80;;
30617;SDS011;17384;51.214;9.202;2023-04-08T04:26:08;33.63;;;19.25;;
30617;SDS011;17384;51.214;9.202;2023-04-08T04:28:34;32.08;;;19.17;;
30617;SDS011;17384;51.214;9.202;2023-04-08T04:31:00;29.70;;;18.63;;
30617;SDS011;17384;51.214;9.202;2023-04-08T04:33:25;34.90;;;19.88;;
30617;SDS011;17384;51.214;9.202;2023-04-08T04:35:51;28.52;;;16.27;;
30617;SDS011;17384;51.214;9.202;2023-04-08T04:38:17;25.67;;;15.55;;
30617;SDS011;17384;51.214;9.202;2023-04-08T04:40:42;32.97;;;16.83;;
30617;SDS011;17384;51.214;9.202;2023-04-08T04:43:08;27.75;;;17.67;;
30617;SDS011;17384;51.214;9.202;2023-04-08T04:45:34;29.50;;;17.35;;
30617;SDS011;17384;51.214;9.202;2023-04-08T04:47:59;28.95;;;17.02;;
30617;SDS011;17384;51.214;9.202;2023-04-08T04:50:25;30.15;;;16.52;;
30617;SDS011;17384;51.214;9.202;2023-04-08T04:52:51;30.52;;;15.60;;
30617;SDS011;17384;51.214;9.202;2023-04-08T04:55:16;25.40;;;15.85;;
30617;SDS011;17384;51.214;9.202;2023-04-08T04:57:42;23.95;;;15.65;;
30617;SDS011;17384;51.214;9.202;2023-04-08T05:00:08;25.83;;;16.50;;
30617;SDS011;17384;51.214;9.202;2023-04-08T05:02:34;26.38;;;15.45;;
30617;SDS011;17384;51.214;9.202;2023-04-08T05:05:00;26.83;;;16.27;;
30617;SDS011;17384;51.214;9.202;2023-04-08T05:07:25;29.25;;;17.60;;
30617;SDS011;17384;51.214;9.202;2023-04-08T05:09:51;28.80;;;16.98;;
30617;SDS011;17384;51.214;9.202;2023-04-08T05:12:16;27.50;;;15.30;;
30617;SDS011;17384;51.214;9.202;2023-04-08T05:14:42;27.33;;;16.63;;
30617;SDS011;17384;51.214;9.202;2023-04-08T05:17:07;38.78;;;20.60;;
30617;SDS011;17384;51.214;9.202;2023-04-08T05:19:33;47.55;;;25.80;;
30617;SDS011;17384;51.214;9.202;2023-04-08T05:21:58;29.70;;;17.73;;
30617;SDS011;17384;51.214;9.202;2023-04-08T05:24:24;36.38;;;20.40;;
30617;SDS011;17384;51.214;9.202;2023-04-08T05:26:49;39.97;;;21.95;;
30617;SDS011;17384;51.214;9.202;2023-04-08T05:29:17;30.27;;;18.80;;
30617;SDS011;17384;51.214;9.202;2023-04-08T05:31:43;34.03;;;20.92;;
30617;SDS011;17384;51.214;9.202;2023-04-08T05:34:09;28.58;;;17.65;;
30617;SDS011;17384;51.214;9.202;2023-04-08T05:36:35;24.15;;;16.55;;
30617;SDS011;17384;51.214;9.202;2023-04-08T05:39:01;25.40;;;16.00;;
30617;SDS011;17384;51.214;9.202;2023-04-08T05:41:26;29.05;;;17.58;;
30617;SDS011;17384;51.214;9.202;2023-04-08T05:43:52;26.75;;;16.52;;
30617;SDS011;17384;51.214;9.202;2023-04-08T05:46:17;26.77;;;14.27;;
30617;SDS011;17384;51.214;9.202;2023-04-08T05:48:43;26.30;;;15.70;;
30617;SDS011;17384;51.214;9.202;2023-04-08T05:51:15;23.35;;;14.68;;
30617;SDS011;17384;51.214;9.202;2023-04-08T05:53:41;25.77;;;15.07;;
30617;SDS011;17384;51.214;9.202;2023-04-08T05:56:09;29.27;;;16.55;;
30617;SDS011;17384;51.214;9.202;2023-04-08T05:58:34;28.73;;;16.13;;
30617;SDS011;17384;51.214;9.202;2023-04-08T06:00:59;27.48;;;16.25;;
30617;SDS011;17384;51.214;9.202;2023-04-08T06:03:25;23.60;;;15.50;;
30617;SDS011;17384;51.214;9.202;2023-04-08T06:05:50;26.60;;;16.83;;
30617;SDS011;17384;51.214;9.202;2023-04-08T06:08:16;28.70;;;15.98;;
30617;SDS011;17384;51.214;9.202;2023-04-08T06:10:50;29.52;;;15.23;;
30617;SDS011;17384;51.214;9.202;2023-04-08T06:13:16;25.70;;;15.80;;
30617;SDS011;17384;51.214;9.202;2023-04-08T06:15:42;30.27;;;17.00;;
30617;SDS011;17384;51.214;9.202;2023-04-08T06:18:07;26.95;;;17.00;;
30617;SDS011;17384;51.214;9.202;2023-04-08T06:20:34;30.75;;;18.20;;
30617;SDS011;17384;51.214;9.202;2023-04-08T06:23:00;27.38;;;16.17;;
30617;SDS011;17384;51.214;9.202;2023-04-08T06:25:25;27.58;;;17.65;;
30617;SDS011;17384;51.214;9.202;2023-04-08T06:27:51;25.95;;;16.65;;
30617;SDS011;17384;51.214;9.202;2023-04-08T06:30:17;27.23;;;17.42;;
30617;SDS011;17384;51.214;9.202;2023-04-08T06:32:42;26.30;;;17.35;;
30617;SDS011;17384;51.214;9.202;2023-04-08T06:35:11;26.73;;;17.77;;
30617;SDS011;17384;51.214;9.202;2023-04-08T06:37:37;35.03;;;19.25;;
30617;SDS011;17384;51.214;9.202;2023-04-08T06:40:03;29.75;;;16.52;;
30617;SDS011;17384;51.214;9.202;2023-04-08T06:42:29;29.08;;;17.75;;
30617;SDS011;17384;51.214;9.202;2023-04-08T06:44:55;30.63;;;17.83;;
30617;SDS011;17384;51.214;9.202;2023-04-08T06:47:22;33.30;;;17.95;;
30617;SDS011;17384;51.214;9.202;2023-04-08T06:49:47;30.90;;;20.00;;
30617;SDS011;17384;51.214;9.202;2023-04-08T06:52:13;34.97;;;19.27;;
30617;SDS011;17384;51.214;9.202;2023-04-08T06:54:39;34.30;;;19.67;;
30617;SDS011;17384;51.214;9.202;2023-04-08T06:57:05;30.88;;;19.15;;
30617;SDS011;17384;51.214;9.202;2023-04-08T06:59:31;36.53;;;19.77;;
30617;SDS011;17384;51.214;9.202;2023-04-08T07:01:56;31.73;;;19.42;;
30617;SDS011;17384;51.214;9.202;2023-04-08T07:04:22;32.53;;;20.75;;
30617;SDS011;17384;51.214;9.202;2023-04-08T07:06:47;38.13;;;21.88;;
30617;SDS011;17384;51.214;9.202;2023-04-08T07:09:13;41.92;;;22.80;;
30617;SDS011;17384;51.214;9.202;2023-04-08T07:11:38;36.67;;;20.95;;
30617;SDS011;17384;51.214;9.202;2023-04-08T07:14:04;42.55;;;22.75;;
30617;SDS011;17384;51.214;9.202;2023-04-08T07:16:29;34.95;;;21.02;;
30617;SDS011;17384;51.214;9.202;2023-04-08T07:18:55;43.33;;;23.33;;
30617;SDS011;17384;51.214;9.202;2023-04-08T07:21:21;36.15;;;21.08;;
30617;SDS011;17384;51.214;9.202;2023-04-08T07:23:46;40.55;;;22.65;;
30617;SDS011;17384;51.214;9.202;2023-04-08T07:26:12;40.53;;;23.67;;
30617;SDS011;17384;51.214;9.202;2023-04-08T07:28:37;39.88;;;22.80;;
30617;SDS011;17384;51.214;9.202;2023-04-08T07:31:09;45.92;;;24.05;;
30617;SDS011;17384;51.214;9.202;2023-04-08T07:33:40;42.78;;;24.77;;
30617;SDS011;17384;51.214;9.202;2023-04-08T07:36:05;42.42;;;23.95;;
30617;SDS011;17384;51.214;9.202;2023-04-08T07:38:32;40.55;;;23.40;;
30617;SDS011;17384;51.214;9.202;2023-04-08T07:40:58;40.75;;;23.60;;
30617;SDS011;17384;51.214;9.202;2023-04-08T07:43:24;38.28;;;22.55;;
30617;SDS011;17384;51.214;9.202;2023-04-08T07:45:50;39.90;;;23.25;;
30617;SDS011;17384;51.214;9.202;2023-04-08T07:48:16;39.08;;;24.25;;
30617;SDS011;17384;51.214;9.202;2023-04-08T07:50:41;43.13;;;23.88;;
30617;SDS011;17384;51.214;9.202;2023-04-08T07:53:07;43.38;;;23.80;;
30617;SDS011;17384;51.214;9.202;2023-04-08T07:55:34;40.20;;;21.60;;
30617;SDS011;17384;51.214;9.202;2023-04-08T07:57:59;41.58;;;22.20;;
30617;SDS011;17384;51.214;9.202;2023-04-08T08:00:25;41.58;;;22.67;;
30617;SDS011;17384;51.214;9.202;2023-04-08T08:02:51;40.03;;;22.73;;
30617;SDS011;17384;51.214;9.202;2023-04-08T08:05:17;36.72;;;22.13;;
30617;SDS011;17384;51.214;9.202;2023-04-08T08:07:42;36.00;;;21.60;;
30617;SDS011;17384;51.214;9.202;2023-04-08T08:10:08;39.42;;;23.33;;
30617;SDS011;17384;51.214;9.202;2023-04-08T08:12:34;43.47;;;23.52;;
30617;SDS011;17384;51.214;9.202;2023-04-08T08:15:00;42.92;;;23.70;;
30617;SDS011;17384;51.214;9.202;2023-04-08T08:17:25;41.35;;;24.13;;
30617;SDS011;17384;51.214;9.202;2023-04-08T08:19:54;37.35;;;22.20;;
30617;SDS011;17384;51.214;9.202;2023-04-08T08:22:19;39.45;;;22.38;;
30617;SDS011;17384;51.214;9.202;2023-04-08T08:24:45;39.25;;;23.05;;
30617;SDS011;17384;51.214;9.202;2023-04-08T08:27:11;41.65;;;22.25;;
30617;SDS011;17384;51.214;9.202;2023-04-08T08:29:36;40.08;;;22.33;;
30617;SDS011;17384;51.214;9.202;2023-04-08T08:32:03;43.38;;;24.27;;
30617;SDS011;17384;51.214;9.202;2023-04-08T08:34:29;36.03;;;21.27;;
30617;SDS011;17384;51.214;9.202;2023-04-08T08:36:55;43.47;;;22.58;;
30617;SDS011;17384;51.214;9.202;2023-04-08T08:39:21;39.05;;;22.92;;
30617;SDS011;17384;51.214;9.202;2023-04-08T08:41:46;37.47;;;21.63;;
30617;SDS011;17384;51.214;9.202;2023-04-08T08:44:12;40.58;;;21.35;;
30617;SDS011;17384;51.214;9.202;2023-04-08T08:46:42;39.97;;;20.42;;
30617;SDS011;17384;51.214;9.202;2023-04-08T08:49:09;34.05;;;20.05;;
30617;SDS011;17384;51.214;9.202;2023-04-08T08:51:35;36.90;;;21.10;;
30617;SDS011;17384;51.214;9.202;2023-04-08T08:54:03;35.55;;;19.38;;
30617;SDS011;17384;51.214;9.202;2023-04-08T08:56:28;30.17;;;19.25;;
30617;SDS011;17384;51.214;9.202;2023-04-08T08:58:54;34.28;;;18.45;;
30617;SDS011;17384;51.214;9.202;2023-04-08T09:01:36;28.33;;;17.40;;
30617;SDS011;17384;51.214;9.202;2023-04-08T09:06:36;29.77;;;16.80;;
30617;SDS011;17384;51.214;9.202;2023-04-08T09:09:02;37.28;;;18.25;;
30617;SDS011;17384;51.214;9.202;2023-04-08T09:11:34;27.40;;;17.02;;
30617;SDS011;17384;51.214;9.202;2023-04-08T09:14:20;30.70;;;17.40;;
30617;SDS011;17384;51.214;9.202;2023-04-08T09:16:47;34.80;;;18.23;;
30617;SDS011;17384;51.214;9.202;2023-04-08T09:19:13;34.40;;;17.80;;
30617;SDS011;17384;51.214;9.202;2023-04-08T09:21:39;33.10;;;18.48;;
30617;SDS011;17384;51.214;9.202;2023-04-08T09:24:05;30.85;;;17.77;;
30617;SDS011;17384;51.214;9.202;2023-04-08T09:26:32;31.08;;;18.92;;
30617;SDS011;17384;51.214;9.202;2023-04-08T09:31:24;31.75;;;19.00;;
30617;SDS011;17384;51.214;9.202;2023-04-08T09:33:52;29.95;;;17.35;;
30617;SDS011;17384;51.214;9.202;2023-04-08T09:36:19;33.15;;;18.10;;
30617;SDS011;17384;51.214;9.202;2023-04-08T09:38:45;38.67;;;19.05;;
30617;SDS011;17384;51.214;9.202;2023-04-08T09:41:12;34.92;;;18.23;;
30617;SDS011;17384;51.214;9.202;2023-04-08T09:43:43;37.72;;;21.13;;
30617;SDS011;17384;51.214;9.202;2023-04-08T09:46:16;33.08;;;18.08;;
30617;SDS011;17384;51.214;9.202;2023-04-08T09:48:49;36.20;;;19.38;;
30617;SDS011;17384;51.214;9.202;2023-04-08T09:51:22;31.80;;;18.70;;
30617;SDS011;17384;51.214;9.202;2023-04-08T09:53:54;39.30;;;19.95;;
30617;SDS011;17384;51.214;9.202;2023-04-08T09:56:24;35.80;;;19.35;;
30617;SDS011;17384;51.214;9.202;2023-04-08T09:58:57;36.33;;;19.05;;
30617;SDS011;17384;51.214;9.202;2023-04-08T10:01:31;36.22;;;20.58;;
30617;SDS011;17384;51.214;9.202;2023-04-08T10:04:07;37.03;;;20.38;;
30617;SDS011;17384;51.214;9.202;2023-04-08T10:06:36;38.75;;;20.88;;
30617;SDS011;17384;51.214;9.202;2023-04-08T10:09:03;38.83;;;22.08;;
30617;SDS011;17384;51.214;9.202;2023-04-08T10:11:30;34.10;;;18.65;;
30617;SDS011;17384;51.214;9.202;2023-04-08T10:13:55;41.85;;;22.30;;
30617;SDS011;17384;51.214;9.202;2023-04-08T10:16:22;35.88;;;20.15;;
30617;SDS011;17384;51.214;9.202;2023-04-08T10:18:51;37.65;;;22.13;;
30617;SDS011;17384;51.214;9.202;2023-04-08T10:24:11;35.95;;;20.05;;
30617;SDS011;17384;51.214;9.202;2023-04-08T10:26:38;38.60;;;21.35;;
30617;SDS011;17384;51.214;9.202;2023-04-08T10:31:42;36.10;;;19.98;;
30617;SDS011;17384;51.214;9.202;2023-04-08T10:34:20;33.90;;;19.33;;
30617;SDS011;17384;51.214;9.202;2023-04-08T10:36:48;35.92;;;20.33;;
30617;SDS011;17384;51.214;9.202;2023-04-08T10:39:15;38.92;;;21.10;;
30617;SDS011;17384;51.214;9.202;2023-04-08T10:41:43;32.58;;;19.05;;
30617;SDS011;17384;51.214;9.202;2023-04-08T10:44:23;33.92;;;19.88;;
30617;SDS011;17384;51.214;9.202;2023-04-08T10:46:50;37.55;;;18.92;;
30617;SDS011;17384;51.214;9.202;2023-04-08T10:49:17;34.70;;;18.75;;
30617;SDS011;17384;51.214;9.202;2023-04-08T10:51:43;39.75;;;22.50;;
30617;SDS011;17384;51.214;9.202;2023-04-08T10:54:11;37.15;;;21.40;;
30617;SDS011;17384;51.214;9.202;2023-04-08T10:56:48;38.45;;;21.58;;
30617;SDS011;17384;51.214;9.202;2023-04-08T10:59:17;44.70;;;22.52;;
30617;SDS011;17384;51.214;9.202;2023-04-08T11:01:52;36.08;;;20.80;;
30617;SDS011;17384;51.214;9.202;2023-04-08T11:04:20;38.00;;;21.63;;
30617;SDS011;17384;51.214;9.202;2023-04-08T11:06:47;34.50;;;20.38;;
30617;SDS011;17384;51.214;9.202;2023-04-08T11:09:13;36.00;;;20.50;;
30617;SDS011;17384;51.214;9.202;2023-04-08T11:11:40;38.53;;;20.70;;
30617;SDS011;17384;51.214;9.202;2023-04-08T11:14:07;36.30;;;22.10;;
30617;SDS011;17384;51.214;9.202;2023-04-08T11:16:33;35.05;;;20.55;;
30617;SDS011;17384;51.214;9.202;2023-04-08T11:19:01;40.65;;;21.88;;
30617;SDS011;17384;51.214;9.202;2023-04-08T11:21:29;31.40;;;19.17;;
30617;SDS011;17384;51.214;9.202;2023-04-08T11:23:55;39.85;;;19.85;;
30617;SDS011;17384;51.214;9.202;2023-04-08T11:26:21;39.47;;;21.52;;
30617;SDS011;17384;51.214;9.202;2023-04-08T11:28:47;33.72;;;18.55;;
30617;SDS011;17384;51.214;9.202;2023-04-08T11:31:14;39.58;;;21.00;;
30617;SDS011;17384;51.214;9.202;2023-04-08T11:33:47;36.15;;;19.75;;
30617;SDS011;17384;51.214;9.202;2023-04-08T11:36:13;34.33;;;19.13;;
30617;SDS011;17384;51.214;9.202;2023-04-08T11:38:41;35.40;;;19.88;;
30617;SDS011;17384;51.214;9.202;2023-04-08T11:41:06;34.63;;;20.50;;
30617;SDS011;17384;51.214;9.202;2023-04-08T11:43:33;32.53;;;18.98;;
30617;SDS011;17384;51.214;9.202;2023-04-08T11:46:07;35.30;;;19.63;;
30617;SDS011;17384;51.214;9.202;2023-04-08T11:48:36;36.03;;;18.17;;
30617;SDS011;17384;51.214;9.202;2023-04-08T11:51:05;35.95;;;18.92;;
30617;SDS011;17384;51.214;9.202;2023-04-08T11:53:36;31.98;;;19.25;;
30617;SDS011;17384;51.214;9.202;2023-04-08T11:56:18;33.58;;;19.98;;
30617;SDS011;17384;51.214;9.202;2023-04-08T11:58:45;33.25;;;19.48;;
30617;SDS011;17384;51.214;9.202;2023-04-08T12:01:12;41.05;;;19.92;;
30617;SDS011;17384;51.214;9.202;2023-04-08T12:03:38;35.47;;;21.42;;
30617;SDS011;17384;51.214;9.202;2023-04-08T12:06:03;34.55;;;20.65;;
30617;SDS011;17384;51.214;9.202;2023-04-08T12:08:33;35.80;;;20.25;;
30617;SDS011;17384;51.214;9.202;2023-04-08T12:10:59;37.22;;;21.15;;
30617;SDS011;17384;51.214;9.202;2023-04-08T12:13:24;36.20;;;21.35;;
30617;SDS011;17384;51.214;9.202;2023-04-08T12:15:50;36.20;;;21.15;;
30617;SDS011;17384;51.214;9.202;2023-04-08T12:18:15;40.90;;;22.48;;
30617;SDS011;17384;51.214;9.202;2023-04-08T12:20:40;39.13;;;22.23;;
30617;SDS011;17384;51.214;9.202;2023-04-08T12:23:06;37.53;;;21.67;;
30617;SDS011;17384;51.214;9.202;2023-04-08T12:25:32;38.53;;;22.90;;
30617;SDS011;17384;51.214;9.202;2023-04-08T12:27:57;31.67;;;20.95;;
30617;SDS011;17384;51.214;9.202;2023-04-08T12:30:22;36.33;;;21.58;;
30617;SDS011;17384;51.214;9.202;2023-04-08T12:32:48;37.30;;;21.80;;
30617;SDS011;17384;51.214;9.202;2023-04-08T12:35:13;35.88;;;22.08;;
30617;SDS011;17384;51.214;9.202;2023-04-08T12:37:39;41.15;;;22.00;;
30617;SDS011;17384;51.214;9.202;2023-04-08T12:40:05;36.95;;;20.38;;
30617;SDS011;17384;51.214;9.202;2023-04-08T12:42:31;36.83;;;21.40;;
30617;SDS011;17384;51.214;9.202;2023-04-08T12:44:57;33.70;;;19.98;;
30617;SDS011;17384;51.214;9.202;2023-04-08T12:47:22;32.75;;;20.58;;
30617;SDS011;17384;51.214;9.202;2023-04-08T12:49:47;32.58;;;20.42;;
30617;SDS011;17384;51.214;9.202;2023-04-08T12:52:13;33.45;;;19.30;;
30617;SDS011;17384;51.214;9.202;2023-04-08T12:54:39;36.28;;;21.45;;
30617;SDS011;17384;51.214;9.202;2023-04-08T12:57:04;33.88;;;19.95;;
30617;SDS011;17384;51.214;9.202;2023-04-08T12:59:30;38.47;;;20.88;;
30617;SDS011;17384;51.214;9.202;2023-04-08T13:01:57;34.72;;;19.92;;
30617;SDS011;17384;51.214;9.202;2023-04-08T13:04:23;40.80;;;21.63;;
30617;SDS011;17384;51.214;9.202;2023-04-08T13:06:48;38.35;;;21.98;;
30617;SDS011;17384;51.214;9.202;2023-04-08T13:09:13;38.47;;;21.98;;
30617;SDS011;17384;51.214;9.202;2023-04-08T13:11:39;42.40;;;22.95;;
30617;SDS011;17384;51.214;9.202;2023-04-08T13:14:04;37.42;;;22.05;;
30617;SDS011;17384;51.214;9.202;2023-04-08T13:16:30;39.50;;;20.95;;
30617;SDS011;17384;51.214;9.202;2023-04-08T13:18:56;42.38;;;22.10;;
30617;SDS011;17384;51.214;9.202;2023-04-08T13:21:21;35.47;;;21.38;;
30617;SDS011;17384;51.214;9.202;2023-04-08T13:23:47;41.50;;;22.42;;
30617;SDS011;17384;51.214;9.202;2023-04-08T13:26:12;33.22;;;18.58;;
30617;SDS011;17384;51.214;9.202;2023-04-08T13:28:38;38.00;;;20.55;;
30617;SDS011;17384;51.214;9.202;2023-04-08T13:31:03;33.80;;;20.35;;
30617;SDS011;17384;51.214;9.202;2023-04-08T13:33:29;38.00;;;20.10;;
30617;SDS011;17384;51.214;9.202;2023-04-08T13:35:54;35.05;;;20.67;;
30617;SDS011;17384;51.214;9.202;2023-04-08T13:38:20;33.33;;;20.10;;
30617;SDS011;17384;51.214;9.202;2023-04-08T13:40:46;34.05;;;20.95;;
30617;SDS011;17384;51.214;9.202;2023-04-08T13:43:12;35.45;;;20.33;;
30617;SDS011;17384;51.214;9.202;2023-04-08T13:45:38;34.90;;;19.63;;
30617;SDS011;17384;51.214;9.202;2023-04-08T13:48:04;35.35;;;21.42;;
30617;SDS011;17384;51.214;9.202;2023-04-08T13:50:30;35.88;;;20.50;;
30617;SDS011;17384;51.214;9.202;2023-04-08T13:52:55;37.20;;;21.63;;
30617;SDS011;17384;51.214;9.202;2023-04-08T13:55:21;37.47;;;20.77;;
30617;SDS011;17384;51.214;9.202;2023-04-08T13:57:46;36.50;;;20.55;;
30617;SDS011;17384;51.214;9.202;2023-04-08T14:00:12;32.45;;;18.98;;
30617;SDS011;17384;51.214;9.202;2023-04-08T14:02:38;33.40;;;19.70;;
30617;SDS011;17384;51.214;9.202;2023-04-08T14:05:03;32.22;;;19.42;;
30617;SDS011;17384;51.214;9.202;2023-04-08T14:07:29;32.22;;;19.52;;
30617;SDS011;17384;51.214;9.202;2023-04-08T14:09:54;34.78;;;19.55;;
30617;SDS011;17384;51.214;9.202;2023-04-08T14:12:20;35.53;;;19.77;;
30617;SDS011;17384;51.214;9.202;2023-04-08T14:14:45;31.52;;;20.08;;
30617;SDS011;17384;51.214;9.202;2023-04-08T14:17:11;33.92;;;19.42;;
30617;SDS011;17384;51.214;9.202;2023-04-08T14:19:36;31.98;;;19.17;;
30617;SDS011;17384;51.214;9.202;2023-04-08T14:22:02;32.28;;;19.13;;
30617;SDS011;17384;51.214;9.202;2023-04-08T14:24:27;33.67;;;19.20;;
30617;SDS011;17384;51.214;9.202;2023-04-08T14:26:53;28.08;;;17.00;;
30617;SDS011;17384;51.214;9.202;2023-04-08T14:29:18;33.92;;;19.08;;
30617;SDS011;17384;51.214;9.202;2023-04-08T14:31:43;33.92;;;19.50;;
30617;SDS011;17384;51.214;9.202;2023-04-08T14:34:09;27.83;;;17.88;;